createdAt,value
2022-09-05T00:02:35.747Z,96.58
2022-09-05T00:05:33.937Z,97.19
2022-09-05T00:08:13.515Z,97.64
2022-09-05T00:11:41.803Z,97.50
2022-09-05T00:13:42.993Z,97.43
2022-09-05T00:16:37.589Z,98.02
2022-09-05T00:24:17.194Z,97.91
2022-09-05T00:24:29.712Z,96.97
2022-09-05T00:25:31.662Z,96.65
2022-09-05T00:28:25.400Z,97.01
2022-09-05T00:31:56.082Z,96.15
2022-09-05T00:34:22.725Z,96.52
2022-09-05T00:36:54.835Z,97.30
2022-09-05T00:39:27.270Z,97.66
2022-09-05T00:41:59.820Z,97.76
2022-09-05T00:44:32.726Z,98.59
2022-09-05T00:47:07.853Z,99.22
2022-09-05T00:49:44.985Z,99.47
2022-09-05T00:52:19.044Z,100.00
2022-09-05T00:55:14.167Z,100.00
2022-09-05T00:58:12.478Z,100.00
2022-09-05T01:00:52.781Z,100.00
2022-09-05T01:03:53.574Z,99.81
2022-09-05T01:06:43.929Z,99.48
2022-09-05T01:09:21.981Z,99.43
2022-09-05T01:12:05.534Z,99.57
2022-09-05T01:14:51.267Z,99.77
2022-09-05T01:17:28.302Z,100.00
2022-09-05T01:20:19.561Z,100.00
2022-09-05T01:23:31.030Z,100.00
2022-09-05T01:26:25.453Z,100.00
2022-09-05T01:29:18.619Z,100.00
2022-09-05T01:32:07.211Z,100.00
2022-09-05T01:34:47.147Z,100.00
2022-09-05T01:37:32.683Z,100.00
2022-09-05T01:40:16.510Z,100.00
2022-09-05T01:42:59.573Z,100.00
2022-09-05T01:45:42.073Z,100.00
2022-09-05T01:48:18.981Z,100.00
2022-09-05T01:50:58.081Z,100.00
2022-09-05T01:53:38.882Z,100.00
2022-09-05T01:56:30.101Z,100.00
2022-09-05T01:59:15.826Z,100.00
2022-09-05T02:02:07.011Z,100.00
2022-09-05T02:05:02.610Z,99.51
2022-09-05T02:07:38.906Z,99.78
2022-09-05T02:10:23.123Z,99.31
2022-09-05T02:13:02.795Z,99.54
2022-09-05T02:15:52.462Z,99.11
2022-09-05T02:18:44.403Z,98.81
2022-09-05T02:21:21.615Z,98.89
2022-09-05T02:24:02.653Z,98.72
2022-09-05T02:26:35.938Z,98.88
2022-09-05T02:29:13.183Z,98.44
2022-09-05T02:32:03.210Z,97.94
2022-09-05T02:34:42.698Z,97.81
2022-09-05T02:37:22.828Z,98.14
2022-09-05T02:45:01.506Z,98.89
2022-09-05T02:45:07.890Z,99.06
2022-09-05T02:46:12.574Z,99.48
2022-09-05T02:48:54.215Z,100.00
2022-09-05T02:57:25.943Z,100.00
2022-09-05T02:57:38.990Z,100.00
2022-09-05T02:57:41.588Z,100.00
2022-09-05T03:00:13.127Z,100.00
2022-09-05T03:03:16.310Z,99.75
2022-09-05T03:05:51.103Z,100.00
2022-09-05T03:08:45.468Z,100.00
2022-09-05T03:11:49.627Z,100.00
2022-09-05T03:14:46.384Z,100.00
2022-09-05T03:17:51.076Z,100.00
2022-09-05T03:21:09.957Z,100.00
2022-09-05T03:24:16.662Z,100.00
2022-09-05T03:27:17.809Z,100.00
2022-09-05T03:30:06.339Z,100.00
2022-09-05T03:33:17.719Z,100.00
2022-09-05T03:36:19.162Z,100.00
2022-09-05T03:39:24.561Z,100.00
2022-09-05T03:42:16.042Z,100.00
2022-09-05T03:45:12.927Z,100.00
2022-09-05T03:48:28.087Z,100.00
2022-09-05T03:57:04.868Z,100.00
2022-09-05T03:57:19.058Z,100.00
2022-09-05T03:57:41.725Z,100.00
2022-09-05T04:00:21.035Z,100.00
2022-09-05T04:05:40.351Z,100.00
2022-09-05T04:08:18.261Z,100.00
2022-09-05T04:08:53.331Z,100.00
2022-09-05T04:11:31.883Z,100.00
2022-09-05T04:14:04.873Z,100.00
2022-09-05T04:16:43.637Z,100.00
2022-09-05T04:19:25.938Z,100.00
2022-09-05T04:22:01.307Z,100.00
2022-09-05T04:24:35.713Z,100.00
2022-09-05T04:27:27.871Z,100.00
2022-09-05T04:30:04.958Z,100.00
2022-09-05T04:32:58.636Z,100.00
2022-09-05T04:35:40.949Z,100.00
2022-09-05T04:38:15.190Z,100.00
2022-09-05T04:41:00.413Z,100.00
2022-09-05T04:43:36.632Z,100.00
2022-09-05T04:46:19.264Z,100.00
2022-09-05T04:48:56.509Z,100.00
2022-09-05T04:51:59.977Z,100.00
2022-09-05T04:54:36.386Z,100.00
2022-09-05T04:57:24.152Z,100.00
2022-09-05T05:04:33.769Z,100.00
2022-09-05T05:06:10.494Z,100.00
2022-09-05T05:06:20.301Z,100.00
2022-09-05T05:08:50.621Z,100.00
2022-09-05T05:16:32.503Z,100.00
2022-09-05T05:18:07.634Z,100.00
2022-09-05T05:18:16.247Z,100.00
2022-09-05T05:20:43.056Z,100.00
2022-09-05T05:23:07.555Z,100.00
2022-09-05T05:25:46.300Z,100.00
2022-09-05T05:28:24.517Z,98.75
2022-09-05T05:31:01.121Z,94.64
2022-09-05T05:33:33.908Z,95.13
2022-09-05T05:36:08.256Z,94.30
2022-09-05T05:38:45.065Z,94.19
2022-09-05T05:41:20.303Z,92.41
2022-09-05T05:43:50.142Z,92.03
2022-09-05T05:46:31.885Z,90.45
2022-09-05T05:49:25.242Z,89.23
2022-09-05T05:52:09.577Z,89.55
2022-09-05T05:54:47.429Z,89.14
2022-09-05T05:57:29.004Z,88.89
2022-09-05T06:00:14.962Z,89.08
2022-09-05T06:03:26.918Z,87.01
2022-09-05T06:06:33.973Z,85.80
2022-09-05T06:14:53.092Z,84.51
2022-09-05T06:15:02.949Z,81.86
2022-09-05T06:16:09.514Z,81.41
2022-09-05T06:19:11.848Z,80.68
2022-09-05T06:22:21.423Z,82.94
2022-09-05T06:25:34.606Z,78.63
2022-09-05T06:28:18.953Z,77.36
2022-09-05T06:31:28.970Z,75.50
2022-09-05T06:34:00.758Z,77.60
2022-09-05T06:36:55.683Z,76.43
2022-09-05T06:39:42.472Z,75.33
2022-09-05T06:42:30.688Z,72.04
2022-09-05T06:45:39.437Z,70.53
2022-09-05T06:48:27.726Z,71.37
2022-09-05T06:51:44.227Z,68.77
2022-09-05T06:55:07.202Z,67.55
2022-09-05T06:57:55.401Z,68.97
2022-09-05T07:00:26.230Z,68.05
2022-09-05T07:03:22.883Z,67.96
2022-09-05T07:05:58.557Z,70.50
2022-09-05T07:08:36.273Z,64.10
2022-09-05T07:11:15.672Z,65.77
2022-09-05T07:13:55.482Z,69.20
2022-09-05T07:16:38.489Z,68.07
2022-09-05T07:19:25.594Z,68.00
2022-09-05T07:22:44.537Z,64.00
2022-09-05T07:24:57.795Z,68.84
2022-09-05T07:27:34.749Z,65.20
2022-09-05T07:30:23.267Z,65.20
2022-09-05T07:32:54.359Z,62.34
2022-09-05T07:35:29.370Z,62.37
2022-09-05T07:38:07.187Z,61.49
2022-09-05T07:40:40.586Z,65.19
2022-09-05T07:43:14.252Z,59.69
2022-09-05T07:45:55.335Z,55.15
2022-09-05T07:48:35.166Z,58.59
2022-09-05T07:57:05.168Z,55.22
2022-09-05T07:57:10.320Z,54.92
2022-09-05T07:57:25.490Z,57.71
2022-09-05T07:59:42.745Z,61.48
2022-09-05T08:02:13.981Z,60.99
2022-09-05T08:04:43.037Z,57.16
2022-09-05T08:07:46.548Z,57.41
2022-09-05T08:10:11.123Z,54.05
2022-09-05T08:13:22.597Z,56.30
2022-09-05T08:16:10.727Z,55.06
2022-09-05T08:18:37.957Z,52.82
2022-09-05T08:57:18.395Z,49.13
2022-09-05T09:00:19.057Z,44.83
2022-09-05T09:03:04.537Z,44.65
2022-09-05T09:06:14.425Z,44.97
2022-09-05T09:08:54.511Z,47.80
2022-09-05T09:11:34.408Z,44.95
2022-09-05T09:14:50.007Z,45.49
2022-09-05T09:17:43.093Z,46.48
2022-09-05T09:20:26.614Z,43.69
2022-09-05T09:22:59.634Z,43.78
2022-09-05T09:25:33.988Z,44.12
2022-09-05T09:28:49.832Z,45.85
2022-09-05T09:31:50.401Z,44.94
2022-09-05T09:34:39.656Z,45.14
2022-09-05T09:37:59.962Z,43.84
2022-09-05T09:41:00.796Z,42.42
2022-09-05T09:43:53.022Z,43.50
2022-09-05T09:46:34.151Z,43.41
2022-09-05T09:49:31.715Z,44.26
2022-09-05T09:52:32.295Z,43.79
2022-09-05T09:55:34.181Z,44.95
2022-09-05T09:58:34.520Z,42.56
2022-09-05T10:01:34.805Z,42.89
2022-09-05T10:07:08.689Z,42.59
2022-09-05T10:10:44.108Z,44.86
2022-09-05T10:11:44.077Z,43.67
2022-09-05T10:14:47.691Z,43.29
2022-09-05T10:17:35.232Z,47.86
2022-09-05T10:20:32.437Z,44.85
2022-09-05T10:23:24.419Z,44.65
2022-09-05T10:26:09.011Z,45.48
2022-09-05T10:28:40.598Z,45.25
2022-09-05T10:33:32.406Z,43.93
2022-09-05T10:35:13.149Z,47.09
2022-09-05T10:37:13.233Z,46.40
2022-09-05T10:39:47.282Z,45.64
2022-09-05T10:42:25.486Z,45.55
2022-09-05T10:44:56.227Z,46.73
2022-09-05T10:47:36.672Z,47.69
2022-09-05T10:50:20.724Z,47.58
2022-09-05T10:53:10.053Z,43.93
2022-09-05T10:55:52.465Z,46.74
2022-09-05T10:59:31.752Z,47.75
2022-09-05T11:02:27.376Z,47.56
2022-09-05T11:04:46.726Z,44.38
2022-09-05T11:07:29.482Z,45.67
2022-09-05T11:10:08.417Z,47.33
2022-09-05T11:12:58.833Z,49.15
2022-09-05T11:15:34.421Z,46.96
2022-09-05T11:18:05.154Z,47.56
2022-09-05T11:20:51.971Z,48.08
2022-09-05T11:23:23.880Z,46.23
2022-09-05T11:26:02.152Z,47.17
2022-09-05T11:28:59.890Z,42.52
2022-09-05T11:32:37.078Z,45.37
2022-09-05T11:39:46.311Z,44.38
2022-09-05T11:40:09.609Z,44.94
2022-09-05T11:42:02.500Z,46.91
2022-09-05T11:44:36.562Z,45.49
2022-09-05T11:47:39.950Z,45.61
2022-09-05T11:50:53.679Z,43.35
2022-09-05T11:53:51.022Z,45.62
2022-09-05T11:57:06.444Z,45.43
2022-09-05T12:00:33.851Z,44.80
2022-09-05T12:03:59.774Z,46.02
2022-09-05T12:07:26.346Z,47.89
2022-09-05T12:10:43.477Z,46.87
2022-09-05T12:13:21.897Z,47.40
2022-09-05T12:16:07.522Z,44.90
2022-09-05T12:18:44.189Z,47.40
2022-09-05T12:21:27.518Z,44.96
2022-09-05T12:25:16.571Z,46.07
2022-09-05T12:27:37.084Z,47.60
2022-09-05T12:29:59.994Z,43.91
2022-09-05T12:34:44.995Z,48.15
2022-09-05T12:36:04.061Z,47.44
2022-09-05T12:41:01.258Z,48.61
2022-09-05T12:41:45.266Z,48.94
2022-09-05T12:44:42.741Z,47.50
2022-09-05T12:47:16.871Z,45.66
2022-09-05T12:50:02.459Z,46.81
2022-09-05T12:52:42.525Z,48.06
2022-09-05T12:55:20.914Z,47.39
2022-09-05T13:03:05.982Z,47.44
2022-09-05T13:03:12.130Z,46.73
2022-09-05T13:03:34.351Z,48.73
2022-09-05T13:06:08.802Z,47.42
2022-09-05T13:08:59.263Z,48.16
2022-09-05T13:14:46.291Z,48.74
2022-09-05T13:14:54.124Z,47.73
2022-09-05T13:17:14.634Z,48.51
2022-09-05T13:19:51.535Z,50.33
2022-09-05T13:22:24.988Z,51.05
2022-09-05T13:25:01.330Z,49.28
2022-09-05T13:27:32.719Z,50.06
2022-09-05T13:31:59.674Z,46.59
2022-09-05T13:38:01.201Z,51.88
2022-09-05T13:38:20.932Z,49.88
2022-09-05T13:39:05.390Z,49.45
2022-09-05T13:41:37.669Z,46.90
2022-09-05T13:44:25.112Z,48.81
2022-09-05T13:46:59.613Z,48.14
2022-09-05T13:49:33.345Z,50.18
2022-09-05T13:52:28.052Z,49.11
2022-09-05T13:55:10.688Z,54.26
2022-09-05T13:57:42.957Z,57.05
2022-09-05T14:00:50.637Z,51.56
2022-09-05T14:04:00.848Z,52.30
2022-09-05T14:10:06.889Z,49.66
2022-09-05T14:12:39.622Z,48.52
2022-09-05T14:46:20.171Z,59.08
2022-09-05T14:49:15.527Z,58.03
2022-09-05T14:51:48.272Z,58.21
2022-09-05T14:58:37.062Z,62.04
2022-09-05T15:02:41.957Z,60.96
2022-09-05T15:03:03.969Z,62.24
2022-09-05T15:05:41.868Z,62.26
2022-09-05T15:08:24.051Z,57.80
2022-09-05T15:12:16.999Z,60.92
2022-09-05T15:13:57.495Z,56.88
2022-09-05T15:16:26.574Z,60.78
2022-09-05T15:18:56.441Z,61.49
2022-09-05T15:21:33.179Z,61.20
2022-09-05T15:24:13.480Z,63.76
2022-09-05T15:26:50.349Z,61.07
2022-09-05T15:29:23.940Z,61.54
2022-09-05T15:31:58.924Z,60.51
2022-09-05T15:34:39.457Z,60.10
2022-09-05T15:37:23.522Z,62.66
2022-09-05T15:40:02.197Z,62.98
2022-09-05T15:42:33.144Z,63.39
2022-09-05T15:45:10.201Z,62.08
2022-09-05T15:47:41.819Z,62.99
2022-09-05T15:50:22.238Z,63.50
2022-09-05T15:52:55.208Z,62.28
2022-09-05T15:55:26.274Z,62.61
2022-09-05T15:57:56.842Z,66.18
2022-09-05T16:00:51.244Z,68.63
2022-09-05T16:06:37.701Z,67.96
2022-09-05T16:10:38.382Z,67.79
2022-09-05T16:10:38.655Z,66.61
2022-09-05T16:12:31.527Z,69.78
2022-09-05T16:15:53.511Z,71.46
2022-09-05T16:23:24.935Z,73.04
2022-09-05T16:23:25.122Z,72.97
2022-09-05T16:23:46.389Z,73.62
2022-09-05T16:26:25.138Z,73.85
2022-09-05T16:28:58.790Z,73.10
2022-09-05T16:31:35.872Z,73.73
2022-09-05T16:34:11.696Z,74.45
2022-09-05T16:36:52.725Z,74.05
2022-09-05T16:39:42.480Z,74.32
2022-09-05T16:42:18.027Z,76.35
2022-09-05T16:44:51.425Z,76.94
2022-09-05T16:47:25.652Z,77.17
2022-09-05T16:50:02.412Z,78.36
2022-09-05T16:52:38.385Z,79.53
2022-09-05T16:55:29.239Z,80.17
2022-09-05T16:58:05.458Z,79.84
2022-09-05T17:00:52.240Z,79.55
2022-09-05T17:03:28.430Z,80.06
2022-09-05T17:06:06.365Z,80.57
2022-09-05T17:08:36.959Z,80.89
2022-09-05T17:11:12.181Z,81.83
2022-09-05T17:13:46.653Z,82.02
2022-09-05T17:16:23.384Z,81.94
2022-09-05T17:18:53.169Z,82.04
2022-09-05T17:21:46.926Z,82.72
2022-09-05T17:29:28.936Z,83.54
2022-09-05T17:29:29.472Z,84.41
2022-09-05T17:32:56.575Z,89.80
2022-09-05T17:35:42.667Z,89.85
2022-09-05T17:38:42.373Z,88.50
2022-09-05T17:41:54.679Z,86.80
2022-09-05T17:44:29.215Z,85.38
2022-09-05T17:47:15.299Z,85.90
2022-09-05T17:49:45.823Z,87.16
2022-09-05T17:52:24.242Z,86.94
2022-09-05T17:54:56.579Z,86.93
2022-09-05T17:57:45.288Z,86.59
2022-09-05T18:01:06.429Z,86.12
2022-09-05T18:04:16.279Z,86.54
2022-09-05T18:07:00.386Z,86.08
2022-09-05T18:10:12.501Z,86.25
2022-09-05T18:13:13.158Z,86.49
2022-09-05T18:16:03.741Z,85.33
2022-09-05T18:19:28.826Z,86.58
2022-09-05T18:21:43.037Z,86.19
2022-09-05T18:24:24.417Z,83.78
2022-09-05T18:27:11.314Z,84.88
2022-09-05T18:29:58.102Z,86.19
2022-09-05T18:32:46.662Z,85.29
2022-09-05T18:35:27.971Z,86.64
2022-09-05T18:38:27.495Z,87.03
2022-09-05T18:41:14.207Z,86.77
2022-09-05T18:44:14.056Z,85.90
2022-09-05T18:46:51.707Z,86.32
2022-09-05T18:50:21.592Z,84.76
2022-09-05T18:52:23.778Z,85.37
2022-09-05T18:55:56.428Z,85.19
2022-09-05T18:57:48.112Z,85.65
2022-09-05T19:00:25.064Z,85.24
2022-09-05T19:03:08.565Z,84.72
2022-09-05T19:05:41.981Z,84.80
2022-09-05T19:08:38.537Z,83.99
2022-09-05T19:11:27.676Z,85.00
2022-09-05T19:14:26.480Z,84.62
2022-09-05T19:16:49.715Z,86.12
2022-09-05T19:19:24.748Z,82.26
2022-09-05T19:21:56.223Z,82.23
2022-09-05T19:24:46.064Z,81.59
2022-09-05T19:31:34.876Z,80.95
2022-09-05T19:36:58.277Z,80.61
2022-09-05T19:37:04.609Z,82.88
2022-09-05T19:37:05.922Z,80.42
2022-09-05T19:40:15.700Z,81.22
2022-09-05T19:47:35.282Z,82.02
2022-09-05T19:47:45.142Z,83.99
2022-09-05T19:47:56.567Z,83.93
2022-09-05T19:50:21.625Z,80.91
2022-09-05T19:52:53.031Z,82.85
2022-09-05T19:55:23.752Z,79.13
2022-09-05T19:58:18.421Z,79.47
2022-09-05T20:00:50.365Z,78.88
2022-09-05T20:03:37.161Z,77.94
2022-09-05T20:06:29.429Z,77.66
2022-09-05T20:09:10.062Z,77.01
2022-09-05T20:11:45.593Z,77.08
2022-09-05T20:14:20.561Z,77.47
2022-09-05T20:16:50.797Z,76.85
2022-09-05T20:19:28.650Z,75.23
2022-09-05T20:22:45.177Z,76.53
2022-09-05T20:24:50.729Z,78.55
2022-09-05T20:27:18.880Z,79.72
2022-09-05T20:29:55.897Z,82.71
2022-09-05T20:32:39.441Z,80.71
2022-09-05T20:38:17.742Z,80.52
2022-09-05T20:43:10.285Z,80.02
2022-09-05T20:43:20.079Z,80.16
2022-09-05T20:43:52.735Z,80.42
2022-09-05T20:48:25.380Z,77.48
2022-09-05T20:54:06.773Z,76.65
2022-09-05T20:54:27.679Z,77.57
2022-09-05T20:55:09.274Z,79.85
2022-09-05T20:57:50.912Z,78.34
2022-09-05T21:00:22.093Z,79.57
2022-09-05T21:02:56.076Z,80.14
2022-09-05T21:05:31.358Z,80.09
2022-09-05T21:08:32.544Z,80.07
2022-09-05T21:11:02.822Z,79.24
2022-09-05T21:13:33.407Z,79.26
2022-09-05T21:16:04.414Z,79.22
2022-09-05T21:18:34.313Z,78.95
2022-09-05T21:21:11.656Z,78.05
2022-09-05T21:24:17.587Z,75.72
2022-09-05T21:26:48.623Z,76.38
2022-09-05T21:29:26.058Z,75.42
2022-09-05T21:32:02.078Z,76.46
2022-09-05T21:34:34.457Z,75.64
2022-09-05T21:37:07.448Z,75.53
2022-09-05T21:39:40.421Z,75.83
2022-09-05T21:44:55.555Z,76.05
2022-09-05T21:47:40.771Z,74.63
2022-09-05T21:48:07.468Z,75.60
2022-09-05T21:50:42.527Z,74.04
2022-09-05T21:59:10.272Z,74.21
2022-09-05T21:59:26.137Z,75.08
2022-09-05T21:59:30.401Z,76.14
2022-09-05T22:01:53.339Z,76.05
2022-09-05T22:04:22.734Z,75.84
2022-09-05T22:06:53.233Z,75.90
2022-09-05T22:09:23.732Z,75.82
2022-09-05T22:11:52.682Z,75.63
2022-09-05T22:14:22.182Z,76.50
2022-09-05T22:16:51.829Z,73.82
2022-09-05T22:19:27.036Z,74.11
2022-09-05T22:22:16.014Z,75.04
2022-09-05T22:24:50.398Z,74.67
2022-09-05T22:27:20.206Z,75.39
2022-09-05T22:29:50.476Z,76.13
2022-09-05T22:32:32.335Z,77.12
2022-09-05T22:35:27.154Z,78.89
2022-09-05T22:37:59.408Z,79.85
2022-09-05T22:40:30.554Z,79.47
2022-09-05T22:42:59.786Z,78.92
2022-09-05T22:45:29.252Z,79.84
2022-09-05T22:47:57.277Z,79.36
2022-09-05T22:50:25.981Z,77.72
2022-09-05T22:52:54.264Z,78.39
2022-09-05T22:55:22.305Z,80.06
2022-09-05T22:57:51.681Z,80.75
2022-09-05T23:00:19.751Z,81.10
2022-09-05T23:02:52.225Z,81.19
2022-09-05T23:05:20.757Z,80.73
2022-09-05T23:07:48.781Z,80.99
2022-09-05T23:10:17.470Z,81.14
2022-09-05T23:12:46.185Z,82.28
2022-09-05T23:15:16.216Z,84.20
2022-09-05T23:17:44.365Z,84.09
2022-09-05T23:20:12.601Z,86.03
2022-09-05T23:22:40.698Z,85.90
2022-09-05T23:25:09.799Z,85.42
2022-09-05T23:27:38.520Z,85.86
2022-09-05T23:30:08.668Z,85.85
2022-09-05T23:32:44.317Z,87.08
2022-09-05T23:35:12.353Z,88.08
2022-09-05T23:37:43.250Z,87.65
2022-09-05T23:40:12.146Z,86.41
2022-09-05T23:42:40.150Z,84.92
2022-09-05T23:45:09.719Z,84.64
2022-09-05T23:47:39.222Z,84.96
2022-09-05T23:50:08.224Z,85.11
2022-09-05T23:52:39.557Z,85.45
2022-09-05T23:55:08.505Z,86.74
2022-09-05T23:57:36.721Z,87.59
